createdAt,value
2023-03-14T00:00:22.155Z,8.37
2023-03-14T00:02:53.995Z,8.51
2023-03-14T00:05:20.562Z,8.48
2023-03-14T00:07:46.953Z,8.51
2023-03-14T00:10:15.475Z,8.55
2023-03-14T00:12:42.711Z,8.39
2023-03-14T00:15:09.614Z,8.39
2023-03-14T00:17:36.751Z,8.36
2023-03-14T00:20:09.312Z,8.36
2023-03-14T00:22:36.981Z,8.25
2023-03-14T00:25:05.770Z,8.30
2023-03-14T00:27:33.061Z,8.30
2023-03-14T00:29:59.504Z,8.30
2023-03-14T00:32:26.135Z,8.43
2023-03-14T00:34:52.662Z,8.38
2023-03-14T00:37:19.355Z,8.41
2023-03-14T00:39:45.797Z,8.42
2023-03-14T00:42:12.468Z,8.57
2023-03-14T00:44:38.867Z,8.48
2023-03-14T00:47:07.969Z,8.55
2023-03-14T00:49:34.812Z,8.35
2023-03-14T00:52:01.224Z,8.25
2023-03-14T00:54:27.943Z,8.23
2023-03-14T00:56:54.429Z,8.44
2023-03-14T00:59:21.059Z,8.38
2023-03-14T01:01:47.693Z,8.32
2023-03-14T01:04:14.193Z,8.37
2023-03-14T01:06:40.710Z,8.39
2023-03-14T01:09:07.399Z,8.34
2023-03-14T01:11:36.005Z,8.29
2023-03-14T01:14:03.769Z,8.13
2023-03-14T01:16:33.808Z,8.12
2023-03-14T01:19:02.160Z,8.02
2023-03-14T01:21:31.180Z,8.17
2023-03-14T01:23:59.175Z,8.08
2023-03-14T01:26:27.875Z,8.10
2023-03-14T01:28:56.139Z,8.02
2023-03-14T01:31:23.853Z,8.19
2023-03-14T01:33:52.561Z,8.05
2023-03-14T01:36:19.502Z,8.15
2023-03-14T01:38:46.999Z,8.13
2023-03-14T01:41:19.365Z,8.02
2023-03-14T01:43:46.850Z,8.10
2023-03-14T01:46:27.247Z,8.06
2023-03-14T01:49:06.292Z,8.14
2023-03-14T01:51:47.238Z,7.99
2023-03-14T01:54:19.979Z,8.02
2023-03-14T01:56:54.281Z,8.03
2023-03-14T01:59:20.951Z,8.04
2023-03-14T02:01:49.465Z,8.01
2023-03-14T02:04:18.712Z,8.02
2023-03-14T02:06:50.597Z,8.08
2023-03-14T02:09:19.418Z,8.10
2023-03-14T02:11:46.606Z,8.11
2023-03-14T02:14:48.938Z,8.14
2023-03-14T02:17:26.118Z,8.12
2023-03-14T02:20:31.970Z,8.12
2023-03-14T02:22:59.953Z,8.23
2023-03-14T02:25:45.744Z,8.02
2023-03-14T02:28:13.621Z,7.97
2023-03-14T02:30:41.171Z,7.92
2023-03-14T02:33:14.052Z,7.86
2023-03-14T02:35:54.157Z,7.68
2023-03-14T02:38:27.753Z,7.71
2023-03-14T02:40:54.308Z,7.73
2023-03-14T02:43:21.496Z,7.78
2023-03-14T02:45:54.908Z,7.77
2023-03-14T02:48:40.544Z,7.81
2023-03-14T02:51:07.392Z,7.88
2023-03-14T02:53:36.791Z,8.01
2023-03-14T03:09:05.177Z,7.83
2023-03-14T03:11:32.615Z,7.63
2023-03-14T03:13:59.270Z,7.59
2023-03-14T03:16:28.110Z,7.65
2023-03-14T03:18:54.676Z,7.66
2023-03-14T03:21:24.205Z,7.79
2023-03-14T03:23:51.340Z,7.84
2023-03-14T03:26:17.770Z,7.59
2023-03-14T03:28:44.271Z,7.59
2023-03-14T03:31:13.294Z,7.55
2023-03-14T03:33:40.001Z,7.45
2023-03-14T03:36:07.609Z,7.32
2023-03-14T03:38:37.187Z,7.41
2023-03-14T03:41:09.026Z,7.29
2023-03-14T03:43:35.954Z,7.32
2023-03-14T03:46:06.154Z,7.32
2023-03-14T03:48:33.439Z,7.40
2023-03-14T03:51:03.444Z,7.50
2023-03-14T03:53:33.912Z,7.43
2023-03-14T03:56:04.998Z,7.34
2023-03-14T03:58:31.721Z,7.32
2023-03-14T04:00:58.156Z,7.23
2023-03-14T04:03:24.927Z,7.29
2023-03-14T04:06:03.761Z,7.25
2023-03-14T04:08:32.436Z,7.21
2023-03-14T04:11:00.615Z,7.33
2023-03-14T04:13:45.506Z,7.24
2023-03-14T04:16:22.249Z,7.09
2023-03-14T04:18:49.880Z,7.17
2023-03-14T04:21:20.005Z,7.21
2023-03-14T04:23:49.729Z,7.19
2023-03-14T04:26:17.865Z,7.18
2023-03-14T04:28:44.856Z,7.09
2023-03-14T04:31:14.020Z,7.10
2023-03-14T04:33:40.764Z,7.15
2023-03-14T04:36:08.684Z,7.17
2023-03-14T04:38:36.134Z,7.12
2023-03-14T04:41:03.105Z,7.05
2023-03-14T04:43:32.314Z,7.11
2023-03-14T04:46:04.517Z,7.10
2023-03-14T04:48:30.954Z,7.00
2023-03-14T04:50:58.741Z,6.99
2023-03-14T04:53:26.155Z,7.01
2023-03-14T04:55:56.595Z,6.95
2023-03-14T04:58:25.835Z,7.01
2023-03-14T05:00:53.884Z,6.95
2023-03-14T05:03:39.154Z,6.89
2023-03-14T05:06:08.716Z,6.95
2023-03-14T05:09:01.857Z,6.83
2023-03-14T05:11:46.864Z,6.93
2023-03-14T05:14:36.198Z,6.96
2023-03-14T05:17:02.566Z,7.01
2023-03-14T05:19:36.281Z,6.95
2023-03-14T05:22:21.121Z,6.89
2023-03-14T05:24:57.732Z,6.87
2023-03-14T05:27:44.425Z,6.88
2023-03-14T05:30:29.601Z,6.98
2023-03-14T05:33:28.374Z,7.09
2023-03-14T05:36:08.475Z,7.05
2023-03-14T05:39:04.443Z,7.13
2023-03-14T05:41:39.982Z,7.02
2023-03-14T05:44:22.853Z,7.02
2023-03-14T05:46:55.381Z,7.03
2023-03-14T05:49:34.970Z,7.06
2023-03-14T05:52:32.793Z,7.20
2023-03-14T05:55:30.588Z,7.18
2023-03-14T05:58:21.393Z,6.91
2023-03-14T06:01:08.016Z,7.11
2023-03-14T06:03:57.186Z,7.16
2023-03-14T06:06:23.729Z,7.24
2023-03-14T06:08:50.883Z,7.16
2023-03-14T06:11:17.441Z,7.18
2023-03-14T06:13:43.961Z,7.16
2023-03-14T06:16:10.455Z,7.14
2023-03-14T06:18:37.101Z,7.16
2023-03-14T06:21:07.003Z,7.07
2023-03-14T06:23:36.386Z,7.07
2023-03-14T06:26:04.058Z,7.14
2023-03-14T06:28:30.703Z,6.89
2023-03-14T06:31:01.353Z,7.03
2023-03-14T06:33:33.060Z,7.01
2023-03-14T06:36:00.654Z,7.08
2023-03-14T06:38:27.289Z,7.16
2023-03-14T06:40:56.110Z,7.11
2023-03-14T06:43:34.539Z,7.03
2023-03-14T06:46:01.318Z,7.14
2023-03-14T06:48:27.975Z,7.07
2023-03-14T06:50:55.737Z,7.15
2023-03-14T06:53:22.902Z,7.15
2023-03-14T06:55:49.448Z,7.09
2023-03-14T06:58:17.795Z,7.14
2023-03-14T07:00:45.736Z,7.16
2023-03-14T07:03:16.206Z,7.14
2023-03-14T07:05:46.193Z,7.25
2023-03-14T07:08:12.659Z,7.13
2023-03-14T07:10:39.088Z,7.17
2023-03-14T07:13:07.668Z,7.11
2023-03-14T07:15:39.000Z,7.14
2023-03-14T07:18:09.134Z,7.06
2023-03-14T07:20:35.614Z,7.09
2023-03-14T07:23:04.551Z,7.16
2023-03-14T07:25:38.801Z,7.10
2023-03-14T07:28:05.719Z,7.25
2023-03-14T07:30:33.105Z,7.29
2023-03-14T07:33:01.994Z,7.31
2023-03-14T07:35:29.102Z,7.11
2023-03-14T07:37:55.530Z,7.14
2023-03-14T07:40:29.053Z,7.26
2023-03-14T07:42:56.233Z,7.23
2023-03-14T07:45:28.595Z,7.32
2023-03-14T07:47:58.347Z,7.49
2023-03-14T07:50:26.757Z,7.53
2023-03-14T07:52:53.455Z,7.46
2023-03-14T07:55:20.487Z,7.48
2023-03-14T07:57:46.998Z,7.75
2023-03-14T08:00:16.060Z,7.77
2023-03-14T08:02:43.115Z,7.71
2023-03-14T08:05:10.320Z,7.77
2023-03-14T08:07:36.825Z,7.83
2023-03-14T08:10:03.763Z,7.75
2023-03-14T08:12:30.214Z,7.65
2023-03-14T08:14:56.591Z,7.69
2023-03-14T08:17:23.108Z,7.64
2023-03-14T08:19:49.564Z,7.75
2023-03-14T08:22:17.833Z,7.60
2023-03-14T08:24:46.251Z,7.71
2023-03-14T08:27:15.293Z,7.81
2023-03-14T08:29:42.876Z,7.77
2023-03-14T08:32:09.647Z,7.82
2023-03-14T08:34:36.266Z,8.05
2023-03-14T08:37:04.416Z,8.02
2023-03-14T08:39:32.930Z,8.44
2023-03-14T08:41:59.370Z,8.73
2023-03-14T08:44:25.827Z,8.67
2023-03-14T08:46:52.360Z,8.72
2023-03-14T08:49:18.865Z,8.83
2023-03-14T08:51:45.300Z,8.72
2023-03-14T08:54:12.098Z,8.53
2023-03-14T08:56:39.133Z,8.17
2023-03-14T08:59:06.401Z,8.07
2023-03-14T09:01:33.117Z,7.93
2023-03-14T09:03:59.699Z,7.91
2023-03-14T09:06:26.132Z,7.86
2023-03-14T09:08:52.665Z,7.88
2023-03-14T09:11:19.643Z,8.06
2023-03-14T09:13:46.038Z,8.06
2023-03-14T09:16:12.652Z,8.17
2023-03-14T09:18:39.086Z,8.06
2023-03-14T09:21:06.155Z,8.09
2023-03-14T09:23:32.977Z,7.99
2023-03-14T09:25:59.679Z,8.04
2023-03-14T09:28:26.566Z,8.14
2023-03-14T09:30:53.293Z,8.53
2023-03-14T09:33:19.827Z,8.62
2023-03-14T09:35:46.404Z,8.61
2023-03-14T09:38:13.051Z,8.70
2023-03-14T09:40:40.086Z,8.80
2023-03-14T09:43:06.581Z,8.81
2023-03-14T09:45:37.922Z,8.72
2023-03-14T09:48:05.733Z,8.50
2023-03-14T09:50:39.780Z,8.73
2023-03-14T09:53:13.907Z,8.62
2023-03-14T09:55:40.803Z,8.49
2023-03-14T09:58:14.008Z,8.45
2023-03-14T10:00:40.688Z,8.64
2023-03-14T10:03:13.062Z,8.75
2023-03-14T10:05:41.098Z,8.71
2023-03-14T10:08:10.626Z,8.83
2023-03-14T10:10:37.549Z,8.84
2023-03-14T10:13:15.347Z,8.84
2023-03-14T10:15:41.997Z,8.86
2023-03-14T10:18:13.841Z,8.98
2023-03-14T10:20:43.349Z,8.99
2023-03-14T10:23:12.765Z,8.76
2023-03-14T10:25:42.707Z,8.71
2023-03-14T10:28:25.509Z,8.71
2023-03-14T10:30:52.490Z,8.72
2023-03-14T10:33:18.855Z,8.78
2023-03-14T10:35:46.278Z,8.71
2023-03-14T10:38:18.473Z,8.77
2023-03-14T10:40:50.456Z,8.57
2023-03-14T10:43:22.153Z,8.47
2023-03-14T10:46:02.320Z,8.49
2023-03-14T10:48:38.348Z,8.53
2023-03-14T10:51:07.714Z,8.61
2023-03-14T10:53:46.376Z,8.60
2023-03-14T10:56:19.314Z,8.43
2023-03-14T10:58:48.175Z,8.38
2023-03-14T11:01:33.291Z,8.47
2023-03-14T11:04:16.124Z,8.38
2023-03-14T11:06:51.044Z,8.34
2023-03-14T11:09:38.015Z,8.40
2023-03-14T11:12:30.101Z,8.07
2023-03-14T11:15:04.387Z,7.77
2023-03-14T11:17:51.006Z,7.93
2023-03-14T11:20:26.620Z,7.95
2023-03-14T11:23:15.724Z,8.08
2023-03-14T11:25:46.000Z,8.03
2023-03-14T11:28:23.757Z,7.93
2023-03-14T11:30:55.841Z,7.85
2023-03-14T11:33:28.370Z,7.95
2023-03-14T11:35:57.676Z,7.70
2023-03-14T11:38:49.072Z,7.52
2023-03-14T11:41:37.232Z,7.39
2023-03-14T11:44:20.694Z,7.49
2023-03-14T11:46:58.784Z,7.55
2023-03-14T11:49:36.853Z,7.48
2023-03-14T11:52:09.544Z,7.30
2023-03-14T11:54:47.903Z,6.92
2023-03-14T11:57:17.771Z,7.25
2023-03-14T11:59:56.335Z,7.15
2023-03-14T12:02:33.267Z,7.20
2023-03-14T12:05:03.707Z,7.23
2023-03-14T12:07:40.898Z,7.32
2023-03-14T12:10:07.746Z,7.09
2023-03-14T12:12:34.747Z,7.05
2023-03-14T12:15:04.115Z,6.96
2023-03-14T12:17:39.830Z,6.93
2023-03-14T12:20:15.393Z,7.07
2023-03-14T12:22:54.678Z,7.06
2023-03-14T12:25:30.602Z,7.00
2023-03-14T12:27:57.203Z,7.09
2023-03-14T12:30:56.084Z,7.22
2023-03-14T12:33:29.350Z,7.40
2023-03-14T12:36:04.795Z,7.48
2023-03-14T12:38:37.362Z,7.48
2023-03-14T12:41:18.296Z,7.36
2023-03-14T12:43:44.833Z,7.41
2023-03-14T12:46:14.050Z,7.38
2023-03-14T12:48:41.358Z,7.35
2023-03-14T12:51:19.909Z,7.39
2023-03-14T12:54:01.725Z,7.20
2023-03-14T12:56:47.383Z,7.20
2023-03-14T12:59:41.679Z,7.12
2023-03-14T13:02:08.162Z,7.14
2023-03-14T13:04:40.062Z,7.22
2023-03-14T13:07:12.770Z,7.27
2023-03-14T13:10:01.202Z,7.09
2023-03-14T13:12:38.382Z,7.04
2023-03-14T13:15:18.105Z,7.07
2023-03-14T13:17:45.311Z,6.87
2023-03-14T13:20:23.860Z,6.76
2023-03-14T13:22:50.874Z,6.83
2023-03-14T13:25:22.088Z,6.79
2023-03-14T13:27:49.197Z,6.84
2023-03-14T13:30:28.358Z,6.80
2023-03-14T13:32:56.702Z,6.52
2023-03-14T13:35:25.978Z,6.55
2023-03-14T13:38:16.041Z,6.57
2023-03-14T13:40:44.814Z,6.63
2023-03-14T13:43:16.908Z,6.74
2023-03-14T13:46:02.163Z,6.93
2023-03-14T13:48:30.935Z,7.06
2023-03-14T13:51:00.405Z,7.22
2023-03-14T13:53:26.842Z,7.38
2023-03-14T13:55:54.250Z,7.40
2023-03-14T13:58:24.248Z,7.34
2023-03-14T14:01:03.763Z,7.15
2023-03-14T14:03:38.138Z,7.40
2023-03-14T14:06:06.569Z,7.21
2023-03-14T14:08:35.566Z,7.23
2023-03-14T14:11:05.433Z,7.35
2023-03-14T14:13:35.809Z,7.14
2023-03-14T14:16:04.818Z,6.86
2023-03-14T14:18:33.256Z,7.01
2023-03-14T14:21:00.122Z,6.81
2023-03-14T14:23:29.731Z,6.86
2023-03-14T14:25:59.798Z,6.68
2023-03-14T14:28:35.413Z,6.82
2023-03-14T14:31:26.064Z,6.85
2023-03-14T14:34:05.200Z,7.03
2023-03-14T14:36:39.505Z,7.00
2023-03-14T14:39:18.964Z,6.91
2023-03-14T14:41:49.632Z,6.97
2023-03-14T14:44:28.819Z,6.92
2023-03-14T14:46:56.592Z,6.96
2023-03-14T14:49:30.056Z,7.04
2023-03-14T14:52:04.010Z,7.04
2023-03-14T14:54:55.604Z,7.21
2023-03-14T14:57:31.226Z,7.32
2023-03-14T15:00:05.076Z,7.30
2023-03-14T15:02:47.301Z,7.43
2023-03-14T15:05:15.951Z,7.45
2023-03-14T15:07:42.461Z,7.50
2023-03-14T15:10:14.147Z,7.26
2023-03-14T15:12:41.036Z,7.37
2023-03-14T15:15:08.702Z,7.48
2023-03-14T15:17:36.925Z,7.55
2023-03-14T15:20:08.042Z,7.69
2023-03-14T15:22:34.577Z,7.66
2023-03-14T15:25:01.012Z,7.67
2023-03-14T15:27:31.736Z,7.79
2023-03-14T15:29:58.285Z,7.79
2023-03-14T15:32:24.741Z,7.66
2023-03-14T15:34:51.153Z,7.68
2023-03-14T15:37:17.750Z,7.48
2023-03-14T15:39:44.644Z,7.62
2023-03-14T15:42:11.512Z,7.62
2023-03-14T15:44:38.152Z,7.59
2023-03-14T15:47:04.747Z,7.59
2023-03-14T15:49:31.141Z,7.58
2023-03-14T15:51:58.196Z,7.48
2023-03-14T15:54:29.313Z,7.56
2023-03-14T15:56:56.806Z,7.51
2023-03-14T15:59:24.325Z,7.45
2023-03-14T16:01:50.855Z,7.53
2023-03-14T16:04:17.762Z,7.55
2023-03-14T16:06:45.554Z,7.58
2023-03-14T16:09:15.126Z,7.60
2023-03-14T16:11:41.598Z,7.37
2023-03-14T16:14:08.059Z,7.37
2023-03-14T16:16:34.611Z,7.37
2023-03-14T16:19:01.052Z,7.54
2023-03-14T16:21:27.665Z,7.57
2023-03-14T16:23:54.198Z,7.58
2023-03-14T16:26:21.299Z,7.59
2023-03-14T16:28:48.801Z,7.65
2023-03-14T16:31:18.447Z,7.59
2023-03-14T16:33:45.437Z,7.56
2023-03-14T16:36:13.607Z,7.55
2023-03-14T16:38:42.352Z,7.55
2023-03-14T16:41:15.027Z,7.57
2023-03-14T16:43:42.453Z,7.56
2023-03-14T16:46:13.774Z,7.53
2023-03-14T16:48:40.643Z,7.56
2023-03-14T16:51:07.133Z,7.45
2023-03-14T16:53:33.564Z,7.42
2023-03-14T16:56:00.465Z,7.31
2023-03-14T16:58:27.973Z,7.16
2023-03-14T17:00:54.593Z,7.17
2023-03-14T17:03:21.114Z,7.04
2023-03-14T17:05:49.662Z,7.12
2023-03-14T17:08:18.504Z,7.13
2023-03-14T17:10:45.462Z,7.11
2023-03-14T17:13:12.582Z,6.71
2023-03-14T17:15:39.124Z,6.73
2023-03-14T17:18:06.011Z,6.69
2023-03-14T17:20:32.868Z,6.62
2023-03-14T17:22:59.302Z,6.62
2023-03-14T17:25:25.744Z,6.60
2023-03-14T17:27:52.146Z,6.56
2023-03-14T17:30:18.631Z,6.58
2023-03-14T17:32:45.142Z,6.46
2023-03-14T17:35:11.566Z,6.47
2023-03-14T17:37:38.043Z,6.49
2023-03-14T17:40:05.164Z,6.52
2023-03-14T17:42:31.558Z,6.47
2023-03-14T17:44:58.706Z,6.48
2023-03-14T17:47:25.123Z,6.54
2023-03-14T17:49:51.686Z,6.52
2023-03-14T17:52:18.166Z,6.56
2023-03-14T17:54:44.593Z,6.50
2023-03-14T17:57:11.645Z,6.41
2023-03-14T17:59:38.147Z,6.38
2023-03-14T18:02:05.262Z,6.34
2023-03-14T18:04:32.034Z,6.37
2023-03-14T18:06:58.495Z,6.29
2023-03-14T18:09:24.955Z,6.86
2023-03-14T18:11:58.846Z,7.27
2023-03-14T18:14:28.560Z,7.35
2023-03-14T18:16:55.028Z,7.05
2023-03-14T18:19:21.603Z,6.84
2023-03-14T18:21:48.045Z,6.76
2023-03-14T18:24:14.545Z,6.65
2023-03-14T18:26:40.950Z,6.57
2023-03-14T18:29:07.434Z,6.51
2023-03-14T18:31:34.945Z,6.42
2023-03-14T18:34:01.649Z,6.38
2023-03-14T18:36:28.439Z,6.25
2023-03-14T18:38:56.676Z,6.26
2023-03-14T18:41:24.580Z,6.21
2023-03-14T18:43:53.726Z,6.17
2023-03-14T18:46:23.430Z,6.23
2023-03-14T18:48:56.775Z,6.11
2023-03-14T18:51:28.868Z,6.07
2023-03-14T18:54:08.353Z,5.98
2023-03-14T18:56:36.585Z,5.86
2023-03-14T18:59:03.017Z,5.86
2023-03-14T19:01:31.356Z,5.87
2023-03-14T19:04:00.024Z,5.78
2023-03-14T19:06:28.349Z,5.78
2023-03-14T19:08:54.961Z,5.77
2023-03-14T19:11:21.472Z,5.56
2023-03-14T19:13:48.143Z,5.75
2023-03-14T19:16:16.377Z,5.74
2023-03-14T19:18:44.478Z,5.73
2023-03-14T19:21:13.327Z,5.74
2023-03-14T19:23:41.865Z,5.65
2023-03-14T19:26:09.868Z,5.60
2023-03-14T19:28:36.989Z,5.54
2023-03-14T19:31:04.912Z,5.49
2023-03-14T19:33:32.096Z,5.48
2023-03-14T19:35:59.027Z,5.47
2023-03-14T19:38:25.563Z,5.47
2023-03-14T19:40:56.802Z,5.38
2023-03-14T19:43:23.290Z,4.41
2023-03-14T19:45:49.857Z,3.70
2023-03-14T19:48:16.812Z,2.37
2023-03-14T19:50:43.356Z,2.59
2023-03-14T19:53:10.662Z,2.73
2023-03-14T19:55:37.552Z,2.15
2023-03-14T19:58:05.347Z,1.41
2023-03-14T20:00:31.849Z,1.33
2023-03-14T20:02:58.414Z,1.24
2023-03-14T20:05:25.258Z,1.35
2023-03-14T20:07:51.972Z,1.47
2023-03-14T20:10:22.634Z,1.57
2023-03-14T20:12:51.094Z,1.82
2023-03-14T20:15:19.850Z,2.07
2023-03-14T20:17:51.202Z,2.05
2023-03-14T20:20:19.113Z,1.74
2023-03-14T20:22:46.145Z,1.76
2023-03-14T20:25:16.464Z,1.65
2023-03-14T20:27:42.986Z,1.95
2023-03-14T20:30:13.033Z,1.90
2023-03-14T20:32:40.930Z,1.77
2023-03-14T20:35:10.098Z,1.52
2023-03-14T20:37:36.753Z,1.32
2023-03-14T20:40:07.272Z,0.96
2023-03-14T20:42:34.560Z,1.36
2023-03-14T20:45:01.136Z,1.45
2023-03-14T20:47:27.943Z,1.94
2023-03-14T20:49:54.520Z,2.10
2023-03-14T20:52:22.550Z,2.33
2023-03-14T20:54:49.006Z,2.35
2023-03-14T20:57:16.607Z,2.28
2023-03-14T20:59:43.472Z,2.18
2023-03-14T21:02:11.437Z,2.27
2023-03-14T21:04:38.252Z,2.36
2023-03-14T21:07:04.823Z,2.41
2023-03-14T21:09:31.421Z,2.37
2023-03-14T21:11:57.830Z,2.52
2023-03-14T21:14:24.917Z,2.59
2023-03-14T21:16:57.001Z,2.62
2023-03-14T21:19:30.200Z,2.57
2023-03-14T21:22:02.235Z,2.61
2023-03-14T21:24:29.757Z,2.62
2023-03-14T21:26:56.586Z,2.71
2023-03-14T21:29:23.730Z,2.70
2023-03-14T21:31:50.572Z,2.74
2023-03-14T21:34:17.321Z,2.74
2023-03-14T21:36:43.823Z,2.70
2023-03-14T21:39:10.307Z,2.80
2023-03-14T21:41:36.760Z,2.76
2023-03-14T21:44:03.217Z,2.76
2023-03-14T21:46:29.790Z,2.78
2023-03-14T21:48:56.624Z,2.75
2023-03-14T21:51:31.116Z,2.79
2023-03-14T21:53:57.876Z,2.76
2023-03-14T21:56:26.888Z,2.71
2023-03-14T21:58:59.088Z,2.63
2023-03-14T22:01:25.692Z,2.66
2023-03-14T22:03:53.454Z,2.63
2023-03-14T22:06:20.478Z,2.59
2023-03-14T22:08:47.179Z,2.63
2023-03-14T22:11:13.621Z,2.63
2023-03-14T22:13:40.413Z,2.56
2023-03-14T22:16:07.946Z,2.57
2023-03-14T22:18:35.067Z,2.57
2023-03-14T22:21:01.885Z,2.55
2023-03-14T22:23:28.347Z,2.31
2023-03-14T22:25:54.843Z,2.52
2023-03-14T22:28:21.399Z,2.56
2023-03-14T22:30:49.886Z,2.57
2023-03-14T22:33:17.879Z,2.56
2023-03-14T22:35:53.264Z,2.62
2023-03-14T22:38:20.155Z,2.66
2023-03-14T22:40:47.547Z,2.55
2023-03-14T22:43:14.017Z,2.41
2023-03-14T22:45:40.821Z,2.57
2023-03-14T22:48:07.332Z,2.56
2023-03-14T22:50:34.442Z,2.48
2023-03-14T22:53:01.064Z,2.48
2023-03-14T22:55:27.455Z,2.40
2023-03-14T22:57:54.066Z,2.33
2023-03-14T23:00:21.393Z,2.39
2023-03-14T23:02:48.162Z,2.36
2023-03-14T23:05:14.902Z,2.36
2023-03-14T23:07:41.453Z,2.28
2023-03-14T23:10:08.658Z,2.23
2023-03-14T23:12:35.431Z,2.25
2023-03-14T23:15:01.904Z,2.18
2023-03-14T23:17:28.303Z,2.25
2023-03-14T23:19:54.725Z,2.17
2023-03-14T23:22:21.250Z,2.14
2023-03-14T23:24:48.787Z,2.14
2023-03-14T23:27:16.407Z,2.13
2023-03-14T23:29:45.928Z,2.10
2023-03-14T23:32:12.590Z,2.07
2023-03-14T23:34:39.035Z,2.06
2023-03-14T23:37:05.499Z,2.06
2023-03-14T23:39:31.909Z,2.06
2023-03-14T23:41:58.410Z,2.03
2023-03-14T23:44:26.429Z,2.02
2023-03-14T23:46:53.255Z,2.03
2023-03-14T23:49:19.868Z,1.94
2023-03-14T23:51:46.861Z,1.95
2023-03-14T23:54:13.490Z,1.96
2023-03-14T23:56:41.183Z,1.91
2023-03-14T23:59:08.031Z,1.86
